This is the latest recevied weather packets stored in our database for station/object W1ERB-13. If no packets are shown the sender has not sent any weather packets the latest 10 day(s).
| Time | Temp. | Humidity | Pressure | Rain* | Wind** | Luminosity | Snow |
|---|---|---|---|---|---|---|---|
| 1777149749 | 8.33° C | 75% | 1016.9 hPa | 0 mm | - | 111 W/m² | - |
| 1777149447 | 8.33° C | 74% | 1017 hPa | 0 mm | - | 109 W/m² | - |
| 1777149142 | 8.33° C | 74% | 1017.1 hPa | 0 mm | - | 107 W/m² | - |
| 1777148842 | 8.89° C | 69% | 1016.8 hPa | 0 mm | - | 102 W/m² | - |
| 1777148540 | 8.89° C | 67% | 1017 hPa | 0 mm | - | 108 W/m² | - |
| 1777148235 | 8.89° C | 66% | 1016.8 hPa | 0 mm | - | 118 W/m² | - |
| 1777147932 | 9.44° C | 66% | 1016.8 hPa | 0 mm | - | 117 W/m² | - |
| 1777147627 | 9.44° C | 63% | 1016.6 hPa | 0 mm | - | 126 W/m² | - |
| 1777147323 | 9.44° C | 62% | 1016.6 hPa | 0 mm | - | 143 W/m² | - |
| 1777147019 | 9.44° C | 62% | 1016.9 hPa | 0 mm | - | 160 W/m² | - |
| 1777146715 | 10° C | 61% | 1016.5 hPa | 0 mm | - | 181 W/m² | - |
| 1777146414 | 10° C | 59% | 1016.7 hPa | 0 mm | - | 189 W/m² | - |
| 1777146112 | 10.56° C | 57% | 1016.6 hPa | 0 mm | - | 203 W/m² | - |
| 1777145807 | 10° C | 58% | 1016.7 hPa | 0 mm | - | 219 W/m² | - |
| 1777145504 | 10° C | 59% | 1016.8 hPa | 0 mm | - | 229 W/m² | - |
| 1777145199 | 10° C | 58% | 1016.5 hPa | 0 mm | - | 229 W/m² | - |
| 1777144894 | 10° C | 57% | 1016.6 hPa | 0 mm | - | 225 W/m² | - |
| 1777144594 | 10.56° C | 57% | 1016.9 hPa | 0 mm | - | 215 W/m² | - |
| 1777144289 | 10.56° C | 56% | 1016.8 hPa | 0 mm | - | 216 W/m² | - |
| 1777143986 | 10.56° C | 55% | 1016.7 hPa | 0 mm | - | 215 W/m² | - |
| 1777143682 | 10.56° C | 54% | 1016.9 hPa | 0 mm | - | 228 W/m² | - |
| 1777143379 | 11.11° C | 52% | 1016.8 hPa | 0 mm | - | 286 W/m² | - |
| 1777143074 | 12.22° C | 52% | 1016.9 hPa | 0 mm | - | 387 W/m² | - |
| 1777142770 | 11.67° C | 49% | 1016.7 hPa | 0 mm | - | 364 W/m² | - |
| 1777142467 | 11.67° C | 51% | 1017 hPa | 0 mm | - | 397 W/m² | - |
* Rain latest hour (hover to see other rain measurements)
** Current wind speed in m/s (hover to see current wind gust speed)